RYR653Z EPWR-LDZD
Flight info
| Callsign | RYR653Z |
|---|---|
| Flight time | 1h 19m |
| Altitude | 36000 |
| Route | ULGIL T707 TOMTI DCT ODLIV DCT BEKVI DCT BUDEX DCT LIMRA DCT KFT DCT BERTA DCT KUDUL |
| Aircraft | B38M/M-SADE3FGILRWY/SB1 |
Departure
| Time | 2026-05-05 16:54 |
|---|---|
| Airport | Copernicus Wrocław Airport (EPWR) |
Arrival
| Time | 2026-05-05 18:14 |
|---|---|
| Airport | Zadar Airport (LDZD) |
| Time | Latitude | Longitude | Altitude | Speed | Heading |
|---|---|---|---|---|---|
| 2026-05-05 16:26 | 51.10900 | 16.87883 | 406 ft | 0 kts | 26° |
| 2026-05-05 16:42 | 51.10886 | 16.87872 | 406 ft | 4 kts | 26° |
| 2026-05-05 16:43 | 51.10866 | 16.87856 | 401 ft | 4 kts | 22° |
| 2026-05-05 16:43 | 51.10842 | 16.87854 | 405 ft | 4 kts | 335° |
| 2026-05-05 16:43 | 51.10823 | 16.87880 | 406 ft | 3 kts | 298° |
| 2026-05-05 16:43 | 51.10822 | 16.87884 | 406 ft | 0 kts | 296° |
| 2026-05-05 16:47 | 51.10823 | 16.87880 | 406 ft | 2 kts | 296° |
| 2026-05-05 16:47 | 51.10840 | 16.87824 | 401 ft | 10 kts | 296° |
| 2026-05-05 16:47 | 51.10886 | 16.87674 | 403 ft | 20 kts | 296° |
| 2026-05-05 16:47 | 51.10948 | 16.87469 | 405 ft | 15 kts | 282° |
| 2026-05-05 16:48 | 51.10929 | 16.87409 | 404 ft | 7 kts | 207° |
| 2026-05-05 16:48 | 51.10877 | 16.87365 | 405 ft | 10 kts | 206° |
| 2026-05-05 16:48 | 51.10811 | 16.87313 | 404 ft | 12 kts | 206° |
| 2026-05-05 16:48 | 51.10733 | 16.87253 | 406 ft | 13 kts | 206° |
| 2026-05-05 16:49 | 51.10656 | 16.87316 | 405 ft | 15 kts | 118° |
| 2026-05-05 16:49 | 51.10607 | 16.87476 | 405 ft | 17 kts | 116° |
| 2026-05-05 16:49 | 51.10552 | 16.87658 | 404 ft | 20 kts | 115° |
| 2026-05-05 16:49 | 51.10491 | 16.87860 | 405 ft | 21 kts | 115° |
| 2026-05-05 16:50 | 51.10428 | 16.88074 | 407 ft | 22 kts | 115° |
| 2026-05-05 16:50 | 51.10362 | 16.88292 | 408 ft | 23 kts | 116° |
| 2026-05-05 16:50 | 51.10291 | 16.88522 | 408 ft | 23 kts | 116° |
| 2026-05-05 16:50 | 51.10217 | 16.88764 | 404 ft | 25 kts | 116° |
| 2026-05-05 16:51 | 51.10147 | 16.88989 | 405 ft | 22 kts | 116° |
| 2026-05-05 16:51 | 51.10101 | 16.89134 | 407 ft | 14 kts | 116° |
| 2026-05-05 16:51 | 51.10056 | 16.89276 | 407 ft | 15 kts | 116° |
| 2026-05-05 16:51 | 51.10009 | 16.89427 | 407 ft | 15 kts | 116° |
| 2026-05-05 16:52 | 51.09959 | 16.89587 | 407 ft | 18 kts | 116° |
| 2026-05-05 16:52 | 51.09911 | 16.89710 | 406 ft | 8 kts | 143° |
| 2026-05-05 16:52 | 51.09892 | 16.89747 | 406 ft | 1 kts | 82° |
| 2026-05-05 16:52 | 51.09894 | 16.89749 | 406 ft | 1 kts | 39° |
| 2026-05-05 16:53 | 51.09911 | 16.89736 | 406 ft | 5 kts | 315° |
| 2026-05-05 16:53 | 51.09933 | 16.89671 | 406 ft | 10 kts | 296° |
| 2026-05-05 16:53 | 51.10049 | 16.89294 | 404 ft | 77 kts | 296° |
| 2026-05-05 16:53 | 51.10397 | 16.88153 | 407 ft | 149 kts | 296° |
| 2026-05-05 16:54 | 51.10915 | 16.86492 | 820 ft | 173 kts | 297° |
| 2026-05-05 16:54 | 51.11448 | 16.84751 | 1615 ft | 179 kts | 296° |
| 2026-05-05 16:54 | 51.12000 | 16.82927 | 2333 ft | 191 kts | 295° |
| 2026-05-05 16:54 | 51.12517 | 16.80835 | 2799 ft | 218 kts | 279° |
| 2026-05-05 16:55 | 51.12413 | 16.78314 | 3320 ft | 242 kts | 251° |
| 2026-05-05 16:55 | 51.11508 | 16.76115 | 4371 ft | 238 kts | 222° |
| 2026-05-05 16:55 | 51.10106 | 16.74565 | 5146 ft | 254 kts | 215° |
| 2026-05-05 16:55 | 51.08865 | 16.72462 | 5801 ft | 270 kts | 239° |
| 2026-05-05 16:56 | 51.07909 | 16.69889 | 6804 ft | 271 kts | 243° |
| 2026-05-05 16:56 | 51.07461 | 16.67004 | 7814 ft | 272 kts | 269° |
| 2026-05-05 16:56 | 51.07611 | 16.63999 | 8803 ft | 274 kts | 272° |
| 2026-05-05 16:56 | 51.07723 | 16.60958 | 9765 ft | 276 kts | 271° |
| 2026-05-05 16:57 | 51.07837 | 16.57852 | 10416 ft | 290 kts | 271° |
| 2026-05-05 16:57 | 51.07957 | 16.54561 | 10926 ft | 306 kts | 271° |
| 2026-05-05 16:57 | 51.08084 | 16.51128 | 11635 ft | 313 kts | 271° |
| 2026-05-05 16:57 | 51.08215 | 16.47662 | 12536 ft | 316 kts | 271° |
| 2026-05-05 16:58 | 51.08347 | 16.44163 | 13386 ft | 320 kts | 271° |
| 2026-05-05 16:58 | 51.08479 | 16.40615 | 14163 ft | 323 kts | 271° |
| 2026-05-05 16:58 | 51.08613 | 16.37024 | 14917 ft | 327 kts | 271° |
| 2026-05-05 16:58 | 51.08746 | 16.33443 | 15664 ft | 331 kts | 271° |
| 2026-05-05 16:59 | 51.08882 | 16.29712 | 16405 ft | 335 kts | 272° |
| 2026-05-05 16:59 | 51.09015 | 16.26042 | 17117 ft | 339 kts | 271° |
| 2026-05-05 16:59 | 51.09151 | 16.22278 | 17828 ft | 343 kts | 272° |
| 2026-05-05 16:59 | 51.09287 | 16.18467 | 18457 ft | 347 kts | 271° |
| 2026-05-05 17:00 | 51.09425 | 16.14570 | 19083 ft | 350 kts | 271° |
| 2026-05-05 17:00 | 51.09559 | 16.10740 | 19664 ft | 353 kts | 271° |
| 2026-05-05 17:00 | 51.09695 | 16.06817 | 20258 ft | 356 kts | 271° |
| 2026-05-05 17:00 | 51.09730 | 16.02823 | 20834 ft | 358 kts | 262° |
| 2026-05-05 17:01 | 51.09074 | 15.99006 | 21403 ft | 360 kts | 245° |
| 2026-05-05 17:01 | 51.07780 | 15.95652 | 21951 ft | 363 kts | 231° |
| 2026-05-05 17:01 | 51.06113 | 15.92607 | 22508 ft | 367 kts | 230° |
| 2026-05-05 17:01 | 51.04440 | 15.89524 | 23046 ft | 370 kts | 230° |
| 2026-05-05 17:02 | 51.02761 | 15.86406 | 23576 ft | 373 kts | 230° |
| 2026-05-05 17:02 | 51.01071 | 15.83252 | 24024 ft | 376 kts | 230° |
| 2026-05-05 17:02 | 50.99352 | 15.80042 | 24492 ft | 378 kts | 230° |
| 2026-05-05 17:02 | 50.97666 | 15.76896 | 24938 ft | 381 kts | 231° |
| 2026-05-05 17:03 | 50.95943 | 15.73684 | 25403 ft | 383 kts | 231° |
| 2026-05-05 17:03 | 50.94209 | 15.70455 | 25847 ft | 385 kts | 231° |
| 2026-05-05 17:03 | 50.92466 | 15.67215 | 26282 ft | 388 kts | 231° |
| 2026-05-05 17:03 | 50.90708 | 15.63949 | 26710 ft | 390 kts | 231° |
| 2026-05-05 17:04 | 50.88942 | 15.60674 | 27140 ft | 392 kts | 231° |
| 2026-05-05 17:04 | 50.87165 | 15.57382 | 27546 ft | 395 kts | 231° |
| 2026-05-05 17:04 | 50.85373 | 15.54067 | 27955 ft | 397 kts | 231° |
| 2026-05-05 17:04 | 50.83573 | 15.50743 | 28353 ft | 400 kts | 231° |
| 2026-05-05 17:05 | 50.81756 | 15.47389 | 28734 ft | 402 kts | 231° |
| 2026-05-05 17:05 | 50.79929 | 15.44023 | 29129 ft | 404 kts | 231° |
| 2026-05-05 17:05 | 50.78096 | 15.40648 | 29510 ft | 407 kts | 231° |
| 2026-05-05 17:05 | 50.76245 | 15.37246 | 29864 ft | 409 kts | 231° |
| 2026-05-05 17:06 | 50.74381 | 15.33827 | 30185 ft | 411 kts | 231° |
| 2026-05-05 17:06 | 50.72512 | 15.30400 | 30514 ft | 413 kts | 231° |
| 2026-05-05 17:06 | 50.70635 | 15.26967 | 30821 ft | 415 kts | 231° |
| 2026-05-05 17:06 | 50.68743 | 15.23508 | 31144 ft | 416 kts | 231° |
| 2026-05-05 17:07 | 50.66845 | 15.20044 | 31444 ft | 418 kts | 231° |
| 2026-05-05 17:07 | 50.64940 | 15.16571 | 31738 ft | 420 kts | 231° |
| 2026-05-05 17:07 | 50.63024 | 15.13086 | 32028 ft | 422 kts | 231° |
| 2026-05-05 17:07 | 50.61099 | 15.09586 | 32364 ft | 423 kts | 231° |
| 2026-05-05 17:08 | 50.59171 | 15.06088 | 32768 ft | 422 kts | 231° |
| 2026-05-05 17:08 | 50.57250 | 15.02608 | 33179 ft | 421 kts | 231° |
| 2026-05-05 17:08 | 50.55330 | 14.99131 | 33592 ft | 420 kts | 231° |
| 2026-05-05 17:08 | 50.53415 | 14.95670 | 33965 ft | 419 kts | 231° |
| 2026-05-05 17:09 | 50.51504 | 14.92221 | 34298 ft | 418 kts | 231° |
| 2026-05-05 17:09 | 50.49491 | 14.88950 | 34613 ft | 420 kts | 220° |
| 2026-05-05 17:09 | 50.46963 | 14.86618 | 34949 ft | 424 kts | 204° |
| 2026-05-05 17:09 | 50.44124 | 14.85298 | 35232 ft | 427 kts | 198° |
| 2026-05-05 17:10 | 50.41235 | 14.84164 | 35477 ft | 428 kts | 197° |
| 2026-05-05 17:10 | 50.38335 | 14.83083 | 35727 ft | 429 kts | 197° |
| 2026-05-05 17:10 | 50.32520 | 14.81002 | 35748 ft | 427 kts | 196° |
| 2026-05-05 17:11 | 50.26729 | 14.78974 | 35753 ft | 427 kts | 196° |
| 2026-05-05 17:11 | 50.20934 | 14.76954 | 35770 ft | 427 kts | 196° |
| 2026-05-05 17:12 | 50.15128 | 14.74936 | 35771 ft | 427 kts | 196° |
| 2026-05-05 17:12 | 50.09324 | 14.72924 | 35773 ft | 428 kts | 196° |
| 2026-05-05 17:13 | 50.03518 | 14.70887 | 35771 ft | 428 kts | 196° |
| 2026-05-05 17:13 | 49.97707 | 14.68849 | 35764 ft | 428 kts | 196° |
| 2026-05-05 17:14 | 49.91895 | 14.66817 | 35763 ft | 428 kts | 196° |
| 2026-05-05 17:14 | 49.86074 | 14.64787 | 35770 ft | 429 kts | 196° |
| 2026-05-05 17:15 | 49.80257 | 14.62763 | 35762 ft | 429 kts | 196° |
| 2026-05-05 17:15 | 49.74442 | 14.60744 | 35769 ft | 428 kts | 195° |
| 2026-05-05 17:16 | 49.68654 | 14.58741 | 35757 ft | 429 kts | 195° |
| 2026-05-05 17:16 | 49.62843 | 14.56734 | 35751 ft | 428 kts | 195° |
| 2026-05-05 17:17 | 49.57026 | 14.54729 | 35748 ft | 428 kts | 195° |
| 2026-05-05 17:17 | 49.51207 | 14.52730 | 35752 ft | 428 kts | 195° |
| 2026-05-05 17:18 | 49.45390 | 14.50735 | 35749 ft | 428 kts | 195° |
| 2026-05-05 17:18 | 49.39582 | 14.48749 | 35742 ft | 428 kts | 195° |
| 2026-05-05 17:19 | 49.33769 | 14.46765 | 35739 ft | 428 kts | 195° |
| 2026-05-05 17:19 | 49.27966 | 14.44790 | 35750 ft | 427 kts | 195° |
| 2026-05-05 17:20 | 49.22172 | 14.42823 | 35732 ft | 426 kts | 195° |
| 2026-05-05 17:20 | 49.16375 | 14.40860 | 35733 ft | 426 kts | 195° |
| 2026-05-05 17:21 | 49.10586 | 14.38903 | 35731 ft | 426 kts | 195° |
| 2026-05-05 17:22 | 49.01902 | 14.35976 | 35725 ft | 426 kts | 195° |
| 2026-05-05 17:22 | 48.96116 | 14.34055 | 35733 ft | 426 kts | 192° |
| 2026-05-05 17:22 | 48.93159 | 14.33880 | 35733 ft | 430 kts | 178° |
| 2026-05-05 17:23 | 48.90153 | 14.34204 | 35732 ft | 431 kts | 180° |
| 2026-05-05 17:23 | 48.84157 | 14.34786 | 35728 ft | 432 kts | 179° |
| 2026-05-05 17:24 | 48.78156 | 14.35431 | 35723 ft | 432 kts | 179° |
| 2026-05-05 17:24 | 48.72156 | 14.36085 | 35728 ft | 432 kts | 179° |
| 2026-05-05 17:25 | 48.66198 | 14.36733 | 35724 ft | 432 kts | 179° |
| 2026-05-05 17:25 | 48.60198 | 14.37385 | 35718 ft | 432 kts | 179° |
| 2026-05-05 17:26 | 48.54157 | 14.38040 | 35721 ft | 432 kts | 179° |
| 2026-05-05 17:26 | 48.48195 | 14.38683 | 35714 ft | 432 kts | 179° |
| 2026-05-05 17:27 | 48.42196 | 14.39330 | 35719 ft | 432 kts | 179° |
| 2026-05-05 17:27 | 48.36191 | 14.39976 | 35722 ft | 432 kts | 179° |
| 2026-05-05 17:28 | 48.30190 | 14.40620 | 35722 ft | 432 kts | 179° |
| 2026-05-05 17:28 | 48.24186 | 14.41263 | 35715 ft | 433 kts | 179° |
| 2026-05-05 17:29 | 48.18184 | 14.41904 | 35713 ft | 432 kts | 179° |
| 2026-05-05 17:29 | 48.12200 | 14.42542 | 35723 ft | 429 kts | 179° |
| 2026-05-05 17:30 | 48.06247 | 14.43174 | 35721 ft | 429 kts | 179° |
| 2026-05-05 17:30 | 48.00281 | 14.43807 | 35722 ft | 430 kts | 179° |
| 2026-05-05 17:31 | 47.94317 | 14.44438 | 35740 ft | 430 kts | 179° |
| 2026-05-05 17:31 | 47.88341 | 14.44921 | 35744 ft | 429 kts | 180° |
| 2026-05-05 17:32 | 47.82380 | 14.45323 | 35772 ft | 429 kts | 180° |
| 2026-05-05 17:32 | 47.76424 | 14.45734 | 35765 ft | 429 kts | 180° |
| 2026-05-05 17:33 | 47.70460 | 14.46145 | 35786 ft | 429 kts | 180° |
| 2026-05-05 17:33 | 47.65502 | 14.46485 | 35779 ft | 429 kts | 180° |
| 2026-05-05 17:34 | 47.59536 | 14.46894 | 35811 ft | 429 kts | 180° |
| 2026-05-05 17:34 | 47.53568 | 14.47302 | 35818 ft | 429 kts | 180° |
| 2026-05-05 17:35 | 47.47603 | 14.47709 | 35820 ft | 429 kts | 180° |
| 2026-05-05 17:35 | 47.41637 | 14.48115 | 35851 ft | 430 kts | 180° |
| 2026-05-05 17:36 | 47.35666 | 14.48521 | 35863 ft | 429 kts | 180° |
| 2026-05-05 17:36 | 47.29695 | 14.48925 | 35873 ft | 430 kts | 180° |
| 2026-05-05 17:37 | 47.23717 | 14.49329 | 35875 ft | 430 kts | 180° |
| 2026-05-05 17:37 | 47.17731 | 14.49734 | 35885 ft | 431 kts | 180° |
| 2026-05-05 17:38 | 47.11736 | 14.50137 | 35881 ft | 432 kts | 181° |
| 2026-05-05 17:38 | 47.05734 | 14.50540 | 35890 ft | 432 kts | 181° |
| 2026-05-05 17:39 | 46.99730 | 14.50942 | 35889 ft | 432 kts | 181° |
| 2026-05-05 17:39 | 46.93712 | 14.51345 | 35901 ft | 433 kts | 181° |
| 2026-05-05 17:40 | 46.87694 | 14.51746 | 35938 ft | 433 kts | 181° |
| 2026-05-05 17:40 | 46.81668 | 14.52147 | 35925 ft | 433 kts | 181° |
| 2026-05-05 17:41 | 46.75645 | 14.52547 | 35936 ft | 434 kts | 181° |
| 2026-05-05 17:41 | 46.69616 | 14.52947 | 35934 ft | 434 kts | 181° |
| 2026-05-05 17:42 | 46.63591 | 14.53390 | 35938 ft | 434 kts | 176° |
| 2026-05-05 17:42 | 46.60652 | 14.54483 | 35945 ft | 438 kts | 163° |
| 2026-05-05 17:42 | 46.57776 | 14.55962 | 35941 ft | 440 kts | 165° |
| 2026-05-05 17:43 | 46.51990 | 14.58896 | 35947 ft | 440 kts | 164° |
| 2026-05-05 17:43 | 46.46254 | 14.61860 | 35963 ft | 440 kts | 164° |
| 2026-05-05 17:43 | 46.43314 | 14.62969 | 35977 ft | 434 kts | 175° |
| 2026-05-05 17:44 | 46.40331 | 14.63694 | 35977 ft | 436 kts | 173° |
| 2026-05-05 17:44 | 46.34359 | 14.65227 | 35975 ft | 435 kts | 173° |
| 2026-05-05 17:45 | 46.28388 | 14.66745 | 35985 ft | 436 kts | 173° |
| 2026-05-05 17:45 | 46.22437 | 14.68254 | 35884 ft | 426 kts | 174° |
| 2026-05-05 17:45 | 46.19540 | 14.68987 | 35453 ft | 422 kts | 174° |
| 2026-05-05 17:46 | 46.16650 | 14.69717 | 34910 ft | 421 kts | 174° |
| 2026-05-05 17:46 | 46.13773 | 14.70443 | 34392 ft | 419 kts | 174° |
| 2026-05-05 17:46 | 46.10909 | 14.71166 | 33900 ft | 417 kts | 174° |
| 2026-05-05 17:46 | 46.08051 | 14.71887 | 33340 ft | 415 kts | 174° |
| 2026-05-05 17:47 | 46.05220 | 14.72599 | 32848 ft | 412 kts | 174° |
| 2026-05-05 17:47 | 46.02409 | 14.73306 | 32376 ft | 408 kts | 174° |
| 2026-05-05 17:47 | 45.99622 | 14.74006 | 31917 ft | 405 kts | 174° |
| 2026-05-05 17:47 | 45.96857 | 14.74700 | 31454 ft | 402 kts | 174° |
| 2026-05-05 17:48 | 45.94112 | 14.75388 | 31006 ft | 399 kts | 174° |
| 2026-05-05 17:48 | 45.91387 | 14.76071 | 30559 ft | 396 kts | 174° |
| 2026-05-05 17:48 | 45.88676 | 14.76750 | 30121 ft | 394 kts | 174° |
| 2026-05-05 17:48 | 45.85986 | 14.77421 | 29626 ft | 392 kts | 174° |
| 2026-05-05 17:49 | 45.83312 | 14.78090 | 29170 ft | 388 kts | 174° |
| 2026-05-05 17:49 | 45.80668 | 14.78749 | 28753 ft | 384 kts | 174° |
| 2026-05-05 17:49 | 45.78045 | 14.79403 | 28346 ft | 380 kts | 174° |
| 2026-05-05 17:49 | 45.75449 | 14.80049 | 27939 ft | 377 kts | 174° |
| 2026-05-05 17:50 | 45.72877 | 14.80689 | 27540 ft | 374 kts | 174° |
| 2026-05-05 17:50 | 45.70321 | 14.81324 | 27150 ft | 371 kts | 174° |
| 2026-05-05 17:50 | 45.67786 | 14.81954 | 26749 ft | 368 kts | 174° |
| 2026-05-05 17:50 | 45.65272 | 14.82577 | 26365 ft | 365 kts | 174° |
| 2026-05-05 17:51 | 45.62786 | 14.83192 | 25990 ft | 361 kts | 174° |
| 2026-05-05 17:51 | 45.60314 | 14.83805 | 25622 ft | 359 kts | 174° |
| 2026-05-05 17:51 | 45.57862 | 14.84412 | 25252 ft | 357 kts | 174° |
| 2026-05-05 17:51 | 45.55424 | 14.85015 | 24879 ft | 355 kts | 174° |
| 2026-05-05 17:52 | 45.52994 | 14.85615 | 24511 ft | 353 kts | 174° |
| 2026-05-05 17:52 | 45.50583 | 14.86210 | 24153 ft | 351 kts | 174° |
| 2026-05-05 17:52 | 45.48185 | 14.86802 | 23791 ft | 349 kts | 174° |
| 2026-05-05 17:52 | 45.45793 | 14.87391 | 23392 ft | 348 kts | 174° |
| 2026-05-05 17:53 | 45.43413 | 14.87976 | 22992 ft | 346 kts | 174° |
| 2026-05-05 17:53 | 45.41050 | 14.88558 | 22624 ft | 343 kts | 174° |
| 2026-05-05 17:53 | 45.38714 | 14.89132 | 22269 ft | 339 kts | 174° |
| 2026-05-05 17:53 | 45.36399 | 14.89700 | 21939 ft | 336 kts | 174° |
| 2026-05-05 17:54 | 45.34100 | 14.90264 | 21588 ft | 333 kts | 174° |
| 2026-05-05 17:54 | 45.31824 | 14.90822 | 21257 ft | 331 kts | 174° |
| 2026-05-05 17:54 | 45.29565 | 14.91375 | 20914 ft | 328 kts | 174° |
| 2026-05-05 17:54 | 45.27329 | 14.91922 | 20585 ft | 325 kts | 174° |
| 2026-05-05 17:55 | 45.25103 | 14.92467 | 20244 ft | 323 kts | 174° |
| 2026-05-05 17:55 | 45.22895 | 14.93005 | 19917 ft | 321 kts | 174° |
| 2026-05-05 17:55 | 45.20698 | 14.93542 | 19589 ft | 319 kts | 174° |
| 2026-05-05 17:55 | 45.18514 | 14.94075 | 19258 ft | 318 kts | 174° |
| 2026-05-05 17:56 | 45.16343 | 14.94604 | 18936 ft | 316 kts | 174° |
| 2026-05-05 17:56 | 45.14209 | 14.95124 | 18611 ft | 315 kts | 174° |
| 2026-05-05 17:56 | 45.12052 | 14.95649 | 18284 ft | 314 kts | 173° |
| 2026-05-05 17:56 | 45.09909 | 14.96170 | 17920 ft | 312 kts | 173° |
| 2026-05-05 17:57 | 45.07780 | 14.96687 | 17586 ft | 309 kts | 173° |
| 2026-05-05 17:57 | 45.05663 | 14.97200 | 17259 ft | 307 kts | 173° |
| 2026-05-05 17:57 | 45.03574 | 14.97707 | 16945 ft | 303 kts | 174° |
| 2026-05-05 17:57 | 45.01474 | 14.98217 | 16627 ft | 300 kts | 174° |
| 2026-05-05 17:58 | 44.99422 | 14.98714 | 16322 ft | 298 kts | 174° |
| 2026-05-05 17:58 | 44.97381 | 14.99208 | 16010 ft | 299 kts | 174° |
| 2026-05-05 17:58 | 44.95316 | 14.99707 | 15686 ft | 304 kts | 174° |
| 2026-05-05 17:58 | 44.93221 | 15.00213 | 15375 ft | 306 kts | 174° |
| 2026-05-05 17:59 | 44.91124 | 15.00720 | 15053 ft | 305 kts | 175° |
| 2026-05-05 17:59 | 44.89043 | 15.01223 | 14760 ft | 302 kts | 175° |
| 2026-05-05 17:59 | 44.86974 | 15.01722 | 14440 ft | 301 kts | 175° |
| 2026-05-05 17:59 | 44.84920 | 15.02218 | 14129 ft | 299 kts | 175° |
| 2026-05-05 18:00 | 44.82870 | 15.02711 | 13801 ft | 298 kts | 175° |
| 2026-05-05 18:00 | 44.80861 | 15.03194 | 13450 ft | 296 kts | 175° |
| 2026-05-05 18:00 | 44.78838 | 15.03681 | 13138 ft | 293 kts | 175° |
| 2026-05-05 18:00 | 44.76838 | 15.04162 | 12817 ft | 290 kts | 175° |
| 2026-05-05 18:01 | 44.74863 | 15.04637 | 12518 ft | 286 kts | 175° |
| 2026-05-05 18:01 | 44.72915 | 15.05105 | 12226 ft | 283 kts | 175° |
| 2026-05-05 18:01 | 44.70982 | 15.05569 | 11926 ft | 280 kts | 175° |
| 2026-05-05 18:01 | 44.69065 | 15.06028 | 11652 ft | 279 kts | 175° |
| 2026-05-05 18:02 | 44.67153 | 15.06114 | 11292 ft | 272 kts | 197° |
| 2026-05-05 18:02 | 44.65437 | 15.05159 | 10993 ft | 262 kts | 210° |
| 2026-05-05 18:02 | 44.63821 | 15.04037 | 10783 ft | 257 kts | 211° |
| 2026-05-05 18:02 | 44.62215 | 15.02889 | 10518 ft | 263 kts | 211° |
| 2026-05-05 18:03 | 44.60573 | 15.01697 | 10232 ft | 268 kts | 211° |
| 2026-05-05 18:03 | 44.58924 | 15.00486 | 10049 ft | 267 kts | 212° |
| 2026-05-05 18:03 | 44.57280 | 14.99272 | 9732 ft | 267 kts | 211° |
| 2026-05-05 18:03 | 44.55642 | 14.98057 | 9399 ft | 266 kts | 211° |
| 2026-05-05 18:04 | 44.54016 | 14.96848 | 9101 ft | 263 kts | 211° |
| 2026-05-05 18:04 | 44.52404 | 14.95650 | 8809 ft | 261 kts | 211° |
| 2026-05-05 18:04 | 44.50810 | 14.94467 | 8540 ft | 258 kts | 211° |
| 2026-05-05 18:04 | 44.49239 | 14.93299 | 8293 ft | 254 kts | 211° |
| 2026-05-05 18:05 | 44.47686 | 14.92147 | 8032 ft | 251 kts | 211° |
| 2026-05-05 18:05 | 44.46136 | 14.91037 | 7756 ft | 250 kts | 205° |
| 2026-05-05 18:05 | 44.44408 | 14.90683 | 7419 ft | 257 kts | 177° |
| 2026-05-05 18:05 | 44.42710 | 14.91488 | 7153 ft | 262 kts | 151° |
| 2026-05-05 18:06 | 44.41314 | 14.93150 | 6897 ft | 268 kts | 139° |
| 2026-05-05 18:06 | 44.40419 | 14.94356 | 6693 ft | 271 kts | 139° |
| 2026-05-05 18:06 | 44.38591 | 14.96836 | 6286 ft | 275 kts | 138° |
| 2026-05-05 18:06 | 44.37237 | 14.98685 | 6116 ft | 268 kts | 138° |
| 2026-05-05 18:07 | 44.35930 | 15.00468 | 6034 ft | 257 kts | 139° |
| 2026-05-05 18:07 | 44.34657 | 15.02201 | 5779 ft | 255 kts | 138° |
| 2026-05-05 18:07 | 44.33395 | 15.03922 | 5475 ft | 253 kts | 138° |
| 2026-05-05 18:07 | 44.32145 | 15.05628 | 5229 ft | 250 kts | 138° |
| 2026-05-05 18:08 | 44.30905 | 15.07323 | 4962 ft | 248 kts | 138° |
| 2026-05-05 18:08 | 44.29679 | 15.08997 | 4699 ft | 245 kts | 138° |
| 2026-05-05 18:08 | 44.28463 | 15.10658 | 4458 ft | 243 kts | 139° |
| 2026-05-05 18:08 | 44.27276 | 15.12280 | 4241 ft | 236 kts | 138° |
| 2026-05-05 18:09 | 44.26115 | 15.13866 | 3987 ft | 231 kts | 138° |
| 2026-05-05 18:09 | 44.24992 | 15.15399 | 3730 ft | 220 kts | 138° |
| 2026-05-05 18:09 | 44.23926 | 15.16853 | 3511 ft | 209 kts | 138° |
| 2026-05-05 18:09 | 44.22910 | 15.18239 | 3277 ft | 200 kts | 138° |
| 2026-05-05 18:10 | 44.21924 | 15.19581 | 3045 ft | 197 kts | 137° |
| 2026-05-05 18:10 | 44.20951 | 15.20906 | 2800 ft | 193 kts | 137° |
| 2026-05-05 18:10 | 44.20014 | 15.22184 | 2556 ft | 183 kts | 136° |
| 2026-05-05 18:10 | 44.19147 | 15.23366 | 2323 ft | 167 kts | 136° |
| 2026-05-05 18:11 | 44.18343 | 15.24455 | 2089 ft | 158 kts | 135° |
| 2026-05-05 18:11 | 44.17564 | 15.25516 | 1891 ft | 153 kts | 134° |
| 2026-05-05 18:11 | 44.16820 | 15.26531 | 1689 ft | 147 kts | 135° |
| 2026-05-05 18:11 | 44.16096 | 15.27518 | 1490 ft | 144 kts | 136° |
| 2026-05-05 18:12 | 44.15386 | 15.28481 | 1323 ft | 142 kts | 135° |
| 2026-05-05 18:12 | 44.14692 | 15.29425 | 1130 ft | 140 kts | 136° |
| 2026-05-05 18:12 | 44.13993 | 15.30373 | 945 ft | 138 kts | 136° |
| 2026-05-05 18:12 | 44.13307 | 15.31304 | 762 ft | 138 kts | 135° |
| 2026-05-05 18:13 | 44.12626 | 15.32250 | 572 ft | 140 kts | 134° |
| 2026-05-05 18:13 | 44.11924 | 15.33190 | 397 ft | 144 kts | 134° |
| 2026-05-05 18:13 | 44.11211 | 15.34149 | 291 ft | 138 kts | 134° |
| 2026-05-05 18:13 | 44.10658 | 15.34902 | 290 ft | 74 kts | 136° |
| 2026-05-05 18:14 | 44.10396 | 15.35253 | 287 ft | 38 kts | 136° |
| 2026-05-05 18:14 | 44.10238 | 15.35467 | 288 ft | 29 kts | 136° |
| 2026-05-05 18:14 | 44.10110 | 15.35640 | 290 ft | 17 kts | 135° |
| 2026-05-05 18:14 | 44.10034 | 15.35709 | 290 ft | 12 kts | 193° |
| 2026-05-05 18:15 | 44.09966 | 15.35627 | 289 ft | 15 kts | 226° |
| 2026-05-05 18:15 | 44.09884 | 15.35531 | 287 ft | 16 kts | 194° |
| 2026-05-05 18:15 | 44.09808 | 15.35536 | 284 ft | 17 kts | 176° |
| 2026-05-05 18:15 | 44.09702 | 15.35539 | 281 ft | 8 kts | 176° |
| 2026-05-05 18:16 | 44.09649 | 15.35543 | 281 ft | 8 kts | 176° |
| 2026-05-05 18:16 | 44.09591 | 15.35544 | 281 ft | 6 kts | 182° |
| 2026-05-05 18:16 | 44.09567 | 15.35530 | 281 ft | 3 kts | 237° |
| 2026-05-05 18:16 | 44.09565 | 15.35514 | 285 ft | 1 kts | 263° |
| 2026-05-05 18:17 | 44.09565 | 15.35483 | 281 ft | 4 kts | 281° |
| 2026-05-05 18:17 | 44.09589 | 15.35453 | 281 ft | 6 kts | 326° |
| 2026-05-05 18:17 | 44.09602 | 15.35441 | 281 ft | 1 kts | 326° |
| 2026-05-05 18:17 | 44.09606 | 15.35437 | 281 ft | 0 kts | 326° |